Time;durP1;ratioP1;P1;durP2;ratioP2;P2;SDS_P1;SDS_P2;PMS_P1;PMS_P2;Temp;Humidity;BMP_temperature;BMP_pressure;BME280_temperature;BME280_humidity;BME280_pressure;Samples;Min_cycle;Max_cycle;Signal;HPM_P1;HPM_P2
2021/07/19 00:02:09;;;;;;;3.70;2.73;;;26.60;54.50;;;;;;5091802;28;20266;-64
2021/07/19 00:04:43;;;;;;;3.70;3.17;;;26.60;54.60;;;;;;5100960;28;20772;-64
2021/07/19 00:07:15;;;;;;;2.83;2.53;;;26.60;54.70;;;;;;5087167;28;20841;-64
2021/07/19 00:09:46;;;;;;;3.47;2.50;;;26.60;54.70;;;;;;5101260;28;20270;-64
2021/07/19 00:12:17;;;;;;;5.00;2.70;;;26.60;54.80;;;;;;5108879;28;20819;-64
2021/07/19 00:14:59;;;;;;;4.63;2.70;;;26.60;54.90;;;;;;5103906;28;20193;-64
2021/07/19 00:17:32;;;;;;;3.23;2.70;;;26.60;54.90;;;;;;5099241;28;20671;-64
2021/07/19 00:20:07;;;;;;;3.27;2.50;;;26.60;54.90;;;;;;5100982;28;20212;-64
2021/07/19 00:22:43;;;;;;;2.83;2.63;;;26.50;54.90;;;;;;5105039;28;20203;-64
2021/07/19 00:25:15;;;;;;;3.97;2.33;;;26.50;54.80;;;;;;5100453;28;20654;-64
2021/07/19 00:27:55;;;;;;;3.50;2.77;;;26.50;55.00;;;;;;5105791;28;20208;-64
2021/07/19 00:30:27;;;;;;;2.67;2.47;;;26.50;54.90;;;;;;5106404;28;20245;-64
2021/07/19 00:32:59;;;;;;;2.73;2.43;;;26.50;54.90;;;;;;5098531;28;20205;-64
2021/07/19 00:35:28;;;;;;;3.47;2.73;;;26.50;54.80;;;;;;5094661;28;20217;-64
2021/07/19 00:38:00;;;;;;;4.50;2.60;;;26.40;54.80;;;;;;5097797;28;20200;-64
2021/07/19 00:40:51;;;;;;;3.80;2.60;;;26.40;54.80;;;;;;5101955;28;20233;-64
2021/07/19 00:43:21;;;;;;;3.23;2.93;;;26.40;54.90;;;;;;5098036;28;20669;-64
2021/07/19 00:45:53;;;;;;;3.20;2.90;;;26.40;54.90;;;;;;5098054;28;20253;-64
2021/07/19 00:48:24;;;;;;;2.90;2.60;;;26.40;54.90;;;;;;5103425;28;20234;-64
2021/07/19 00:50:53;;;;;;;4.57;2.60;;;26.40;55.00;;;;;;5108761;28;20624;-64
2021/07/19 00:53:25;;;;;;;3.47;2.30;;;26.40;55.00;;;;;;5104535;28;20184;-64
2021/07/19 00:55:57;;;;;;;3.80;2.57;;;26.40;55.10;;;;;;5104431;28;20371;-64
2021/07/19 00:58:29;;;;;;;4.00;2.57;;;26.30;55.00;;;;;;5102414;28;20224;-64
2021/07/19 01:01:03;;;;;;;3.00;2.53;;;26.30;55.10;;;;;;5089051;28;20215;-65
2021/07/19 01:03:35;;;;;;;2.80;2.60;;;26.30;55.70;;;;;;5105686;28;20192;-64
2021/07/19 01:06:07;;;;;;;3.50;2.60;;;26.30;55.10;;;;;;5101943;28;20426;-64
2021/07/19 01:08:40;;;;;;;3.70;2.83;;;26.30;55.20;;;;;;5108542;28;20226;-65
2021/07/19 01:11:13;;;;;;;3.33;2.70;;;26.30;55.20;;;;;;5099811;28;20218;-65
2021/07/19 01:13:44;;;;;;;3.47;2.70;;;26.30;55.30;;;;;;5100228;28;20253;-64
2021/07/19 01:16:17;;;;;;;6.77;2.93;;;26.30;55.30;;;;;;5100170;28;20220;-65
2021/07/19 01:19:20;;;;;;;5.00;2.77;;;26.20;55.20;;;;;;5107802;28;20199;-65
2021/07/19 01:22:16;;;;;;;4.80;2.87;;;26.20;55.20;;;;;;5102510;28;20195;-64
2021/07/19 01:25:04;;;;;;;3.63;2.70;;;26.20;55.20;;;;;;5100377;28;20584;-65
2021/07/19 01:28:12;;;;;;;2.70;2.33;;;26.20;55.10;;;;;;5105878;28;20200;-64
2021/07/19 01:30:48;;;;;;;4.07;2.77;;;26.20;55.20;;;;;;5094491;28;20185;-64
2021/07/19 01:33:20;;;;;;;3.30;2.53;;;26.20;55.10;;;;;;5102973;28;20647;-64
2021/07/19 01:35:50;;;;;;;3.73;2.60;;;26.20;55.10;;;;;;5099938;28;20224;-64
2021/07/19 01:38:21;;;;;;;5.40;2.70;;;26.20;55.20;;;;;;5105420;28;20245;-64
2021/07/19 01:40:54;;;;;;;3.60;2.73;;;26.10;55.10;;;;;;5106487;28;20200;-64
2021/07/19 01:43:46;;;;;;;3.30;2.67;;;26.10;55.10;;;;;;5099418;28;20645;-65
2021/07/19 01:46:22;;;;;;;3.13;2.40;;;26.10;55.00;;;;;;5104770;28;20680;-65
2021/07/19 01:48:51;;;;;;;3.80;2.80;;;26.10;55.10;;;;;;5103130;28;20196;-64
2021/07/19 01:51:23;;;;;;;3.50;2.43;;;26.10;55.00;;;;;;5100947;28;20412;-64
2021/07/19 01:53:54;;;;;;;2.97;2.50;;;26.10;55.00;;;;;;5094885;28;20201;-64
2021/07/19 01:56:27;;;;;;;3.60;2.90;;;26.10;55.00;;;;;;5091578;28;20836;-65
2021/07/19 01:59:21;;;;;;;3.33;2.70;;;26.10;55.00;;;;;;5103920;28;20202;-64
2021/07/19 02:01:51;;;;;;;3.77;2.40;;;26.10;55.10;;;;;;5104608;28;20260;-64
2021/07/19 02:04:20;;;;;;;4.40;2.90;;;26.00;55.00;;;;;;5104592;28;20200;-64
2021/07/19 02:06:57;;;;;;;2.50;2.30;;;26.00;55.00;;;;;;5104783;28;20232;-64
2021/07/19 02:09:32;;;;;;;3.80;2.50;;;26.00;55.00;;;;;;5106157;28;20201;-64
2021/07/19 02:12:04;;;;;;;3.70;2.67;;;26.00;54.90;;;;;;5087300;28;20557;-64
2021/07/19 02:14:41;;;;;;;6.03;3.00;;;26.10;54.90;;;;;;5105078;28;20216;-64
2021/07/19 02:17:32;;;;;;;5.20;3.03;;;26.00;54.80;;;;;;5102804;28;20239;-64
2021/07/19 02:20:10;;;;;;;4.57;2.50;;;26.00;54.80;;;;;;5107304;28;20200;-64
2021/07/19 02:22:48;;;;;;;2.70;2.50;;;26.00;54.70;;;;;;5100142;28;20208;-64
2021/07/19 02:25:19;;;;;;;3.57;2.37;;;26.00;54.70;;;;;;5106005;28;20682;-64
2021/07/19 02:27:54;;;;;;;3.97;2.60;;;26.00;54.70;;;;;;5100634;28;20200;-64
2021/07/19 02:30:24;;;;;;;3.67;2.80;;;25.90;54.70;;;;;;5106614;28;20325;-64
2021/07/19 02:32:58;;;;;;;4.67;2.50;;;25.90;54.70;;;;;;5105029;28;20203;-64
2021/07/19 02:35:27;;;;;;;4.07;2.70;;;25.90;54.70;;;;;;5097502;28;20204;-64
2021/07/19 02:38:08;;;;;;;2.70;2.40;;;25.90;54.70;;;;;;5110784;28;20216;-64
2021/07/19 02:40:38;;;;;;;4.63;3.13;;;25.90;54.70;;;;;;5088318;28;20209;-64
2021/07/19 02:43:31;;;;;;;4.60;2.93;;;25.90;54.70;;;;;;5109368;28;20193;-64
2021/07/19 02:46:03;;;;;;;4.93;3.17;;;25.90;54.70;;;;;;5104131;28;20285;-64
2021/07/19 02:48:36;;;;;;;2.77;2.47;;;25.90;54.80;;;;;;5109187;28;20204;-65
2021/07/19 02:51:20;;;;;;;3.77;2.73;;;25.90;54.70;;;;;;5097215;28;20276;-64
2021/07/19 02:53:50;;;;;;;5.03;2.50;;;25.80;54.60;;;;;;5101905;28;20193;-64
2021/07/19 02:56:24;;;;;;;3.50;2.87;;;25.80;54.70;;;;;;5107636;28;20629;-64
2021/07/19 02:58:56;;;;;;;2.80;2.40;;;25.80;54.70;;;;;;5103883;28;20197;-65
2021/07/19 03:01:29;;;;;;;3.53;2.63;;;25.80;54.70;;;;;;5093859;28;20754;-64
2021/07/19 03:04:18;;;;;;;2.83;2.60;;;25.80;54.70;;;;;;5090394;28;20276;-64
2021/07/19 03:06:48;;;;;;;3.37;3.03;;;25.80;54.70;;;;;;5104981;28;20211;-64
2021/07/19 03:09:23;;;;;;;3.03;2.70;;;25.80;54.70;;;;;;5087515;28;20203;-64
2021/07/19 03:11:53;;;;;;;3.53;2.50;;;25.80;54.70;;;;;;5107035;28;20188;-64
2021/07/19 03:14:23;;;;;;;4.90;2.53;;;25.90;54.80;;;;;;5103267;28;20282;-64
2021/07/19 03:16:55;;;;;;;3.50;2.60;;;25.80;54.70;;;;;;5099082;28;20256;-65
2021/07/19 03:19:32;;;;;;;3.03;2.60;;;25.80;54.70;;;;;;5100773;28;20274;-69
2021/07/19 03:22:04;;;;;;;7.60;2.80;;;25.80;54.70;;;;;;5104554;28;20204;-64
2021/07/19 03:24:37;;;;;;;3.03;2.73;;;25.80;54.70;;;;;;5103938;28;20204;-64
2021/07/19 03:27:07;;;;;;;4.43;3.00;;;25.70;54.50;;;;;;5104250;28;20397;-64
2021/07/19 03:29:37;;;;;;;3.37;2.70;;;25.70;54.50;;;;;;5104040;28;20192;-64
2021/07/19 03:32:08;;;;;;;3.23;2.90;;;25.70;54.50;;;;;;5099259;28;20215;-64
2021/07/19 03:34:43;;;;;;;2.70;2.50;;;25.70;54.50;;;;;;5101032;28;20247;-64
2021/07/19 03:37:19;;;;;;;4.77;3.10;;;25.70;54.50;;;;;;5104700;28;20220;-64
2021/07/19 03:39:53;;;;;;;3.33;2.80;;;25.70;54.50;;;;;;5091764;28;20224;-64
2021/07/19 03:42:35;;;;;;;3.47;2.90;;;25.70;54.50;;;;;;5104669;28;20196;-64
2021/07/19 03:45:06;;;;;;;3.00;2.53;;;25.70;54.40;;;;;;5107733;28;20271;-64
2021/07/19 03:47:38;;;;;;;3.73;3.00;;;25.70;54.40;;;;;;5110389;28;20250;-64
2021/07/19 03:50:09;;;;;;;4.80;2.70;;;25.70;54.40;;;;;;5103788;28;20654;-65
2021/07/19 03:52:40;;;;;;;2.70;2.47;;;25.70;54.40;;;;;;5105659;28;20814;-65
2021/07/19 03:55:15;;;;;;;3.07;2.40;;;25.60;54.30;;;;;;5103856;28;20635;-64
2021/07/19 03:57:45;;;;;;;2.47;2.23;;;25.70;54.40;;;;;;5104039;28;20232;-64
2021/07/19 04:00:16;;;;;;;3.90;2.80;;;25.60;54.30;;;;;;5085051;28;20200;-65
2021/07/19 04:02:53;;;;;;;4.70;2.73;;;25.60;54.30;;;;;;5092364;28;20243;-65
2021/07/19 04:05:30;;;;;;;3.17;2.53;;;25.70;54.30;;;;;;5100335;28;20567;-64
2021/07/19 04:08:03;;;;;;;3.13;2.73;;;25.60;54.20;;;;;;5104062;28;20626;-64
2021/07/19 04:10:41;;;;;;;4.37;2.73;;;25.60;54.20;;;;;;5108602;28;20548;-64
2021/07/19 04:13:16;;;;;;;4.50;2.57;;;25.60;54.10;;;;;;5106419;28;20204;-64
2021/07/19 04:15:56;;;;;;;4.40;3.10;;;25.50;54.00;;;;;;5100462;28;20196;-64
2021/07/19 04:18:30;;;;;;;4.10;2.63;;;25.60;54.10;;;;;;5108097;28;20598;-64
2021/07/19 04:21:00;;;;;;;3.70;2.70;;;25.50;54.00;;;;;;5100896;28;20201;-62
2021/07/19 04:23:36;;;;;;;4.33;3.43;;;25.50;54.00;;;;;;5089220;28;20254;-63
2021/07/19 04:26:11;;;;;;;2.97;2.67;;;25.50;54.00;;;;;;5096510;28;20687;-63
2021/07/19 04:28:56;;;;;;;9.43;3.07;;;25.50;54.00;;;;;;5102831;28;20295;-63
2021/07/19 04:31:33;;;;;;;5.40;3.10;;;25.50;54.00;;;;;;5099200;28;20188;-63
2021/07/19 04:34:04;;;;;;;4.03;3.10;;;25.50;54.00;;;;;;5098202;28;20201;-63
2021/07/19 04:36:37;;;;;;;4.50;3.23;;;25.50;54.00;;;;;;5101567;28;20212;-63
2021/07/19 04:39:06;;;;;;;3.80;3.00;;;25.50;54.00;;;;;;5100769;28;20197;-63
2021/07/19 04:41:37;;;;;;;3.97;3.17;;;25.50;54.00;;;;;;5102259;28;20265;-63
2021/07/19 04:44:07;;;;;;;4.27;3.13;;;25.50;54.00;;;;;;5103810;28;20180;-63
2021/07/19 04:46:39;;;;;;;4.07;3.30;;;25.50;54.00;;;;;;5104806;28;20197;-63
2021/07/19 04:49:22;;;;;;;3.40;3.10;;;25.50;54.00;;;;;;5109962;28;20228;-63
2021/07/19 04:52:06;;;;;;;6.20;3.53;;;25.50;54.00;;;;;;5102750;28;20676;-65
2021/07/19 04:54:38;;;;;;;5.47;3.53;;;25.50;54.00;;;;;;5104640;28;20200;-62
2021/07/19 04:57:15;;;;;;;3.87;3.47;;;25.50;54.10;;;;;;5102218;28;20200;-63
2021/07/19 05:00:05;;;;;;;4.07;3.57;;;25.50;54.10;;;;;;5094891;28;20326;-64
2021/07/19 05:02:40;;;;;;;5.17;3.10;;;25.50;54.20;;;;;;5102267;28;20510;-63
2021/07/19 05:05:17;;;;;;;3.43;2.93;;;25.50;54.60;;;;;;5105271;28;20208;-62
2021/07/19 05:08:11;;;;;;;5.00;3.80;;;25.50;54.20;;;;;;5108430;28;20200;-63
2021/07/19 05:10:41;;;;;;;4.10;3.80;;;25.40;54.20;;;;;;5102100;28;20821;-64
2021/07/19 05:13:27;;;;;;;4.77;4.17;;;25.40;54.20;;;;;;5098441;28;20289;-63
2021/07/19 05:16:10;;;;;;;5.97;3.97;;;25.50;54.30;;;;;;5100565;28;20621;-63
2021/07/19 05:18:40;;;;;;;5.17;3.77;;;25.40;54.30;;;;;;5097781;28;20228;-63
2021/07/19 05:21:11;;;;;;;7.07;4.60;;;25.40;54.30;;;;;;5092691;28;20246;-63
2021/07/19 05:23:44;;;;;;;4.43;4.00;;;25.40;54.30;;;;;;5097115;28;20254;-63
2021/07/19 05:26:25;;;;;;;4.60;4.20;;;25.40;54.30;;;;;;5103153;28;20195;-63
2021/07/19 05:28:59;;;;;;;7.23;4.43;;;25.50;54.40;;;;;;5101127;28;20242;-63
2021/07/19 05:31:29;;;;;;;5.07;4.57;;;25.40;54.40;;;;;;5102033;28;20192;-62
2021/07/19 05:33:59;;;;;;;5.43;4.33;;;25.40;54.40;;;;;;5100814;28;20231;-64
2021/07/19 05:36:49;;;;;;;5.73;4.10;;;25.40;54.40;;;;;;5100931;28;20211;-65
2021/07/19 05:39:29;;;;;;;6.60;4.80;;;25.40;54.50;;;;;;5098509;28;20675;-64
2021/07/19 05:42:00;;;;;;;6.73;3.90;;;25.40;54.40;;;;;;5095262;28;20188;-65
2021/07/19 05:44:31;;;;;;;6.27;4.37;;;25.40;54.60;;;;;;5101238;28;20189;-64
2021/07/19 05:47:02;;;;;;;10.97;5.23;;;25.40;54.70;;;;;;5102534;28;20212;-64
2021/07/19 05:49:37;;;;;;;5.50;4.90;;;25.40;54.60;;;;;;5099678;28;20266;-66
2021/07/19 05:52:06;;;;;;;5.10;4.60;;;25.40;54.60;;;;;;5099597;28;20327;-66
2021/07/19 05:54:39;;;;;;;6.37;5.40;;;25.50;54.50;;;;;;5094977;28;20220;-66
2021/07/19 05:57:10;;;;;;;5.50;5.00;;;25.50;54.50;;;;;;5098710;28;20224;-64
2021/07/19 05:59:47;;;;;;;5.60;5.00;;;25.50;54.50;;;;;;5100251;28;20193;-66
2021/07/19 06:02:19;;;;;;;5.43;4.67;;;25.50;54.30;;;;;;5105129;28;20199;-67
2021/07/19 06:05:14;;;;;;;5.60;5.07;;;25.60;54.30;;;;;;5107586;28;20628;-66
2021/07/19 06:07:45;;;;;;;6.27;5.43;;;25.60;54.30;;;;;;5092526;28;20209;-64
2021/07/19 06:10:18;;;;;;;5.63;5.10;;;25.60;54.30;;;;;;5095768;28;20213;-64
2021/07/19 06:12:48;;;;;;;5.77;5.00;;;25.60;54.20;;;;;;5099911;28;20201;-65
2021/07/19 06:15:20;;;;;;;6.13;5.37;;;25.60;54.10;;;;;;5074869;28;20238;-65
2021/07/19 06:18:03;;;;;;;104.17;32.27;;;25.70;54.20;;;;;;5100974;28;20263;-65
2021/07/19 06:20:32;;;;;;;110.00;35.63;;;25.70;56.10;;;;;;5096839;28;20588;-63
2021/07/19 06:23:04;;;;;;;78.73;27.73;;;25.70;57.10;;;;;;5084328;28;20196;-66
2021/07/19 06:25:41;;;;;;;69.10;26.00;;;25.70;56.70;;;;;;5099728;28;20598;-64
2021/07/19 06:28:13;;;;;;;51.13;18.83;;;25.80;56.30;;;;;;5097580;28;20192;-62
2021/07/19 06:30:44;;;;;;;45.07;18.60;;;25.80;56.10;;;;;;5101230;28;20208;-64
2021/07/19 06:33:15;;;;;;;41.67;17.03;;;25.80;55.60;;;;;;5102668;28;20200;-65
2021/07/19 06:35:48;;;;;;;34.53;15.20;;;25.80;55.60;;;;;;5097726;28;20231;-64
2021/07/19 06:38:17;;;;;;;35.87;14.27;;;25.80;56.10;;;;;;5103654;28;20208;-64
2021/07/19 06:40:47;;;;;;;24.87;12.63;;;25.90;55.70;;;;;;5102269;28;20793;-62
2021/07/19 06:43:19;;;;;;;25.83;11.30;;;26.00;55.40;;;;;;5103364;28;20201;-65
2021/07/19 06:45:51;;;;;;;20.60;10.87;;;26.10;54.90;;;;;;5099482;28;20216;-63
2021/07/19 06:48:20;;;;;;;14.90;10.37;;;26.10;54.90;;;;;;5103689;28;20201;-66
2021/07/19 06:50:50;;;;;;;17.60;10.03;;;26.10;54.60;;;;;;5096373;28;20222;-66
2021/07/19 06:53:22;;;;;;;15.20;9.80;;;26.10;54.30;;;;;;5098444;28;20197;-64
2021/07/19 06:55:51;;;;;;;13.77;9.27;;;26.20;54.20;;;;;;5099051;28;20208;-65
2021/07/19 06:58:23;;;;;;;11.63;8.30;;;26.20;54.20;;;;;;5100158;28;20216;-64
2021/07/19 07:00:54;;;;;;;13.63;7.90;;;26.30;53.80;;;;;;5098289;28;20309;-63
2021/07/19 07:03:24;;;;;;;9.97;7.87;;;26.30;53.70;;;;;;5097667;28;20205;-63
2021/07/19 07:05:56;;;;;;;11.30;7.70;;;26.30;53.50;;;;;;5101286;28;20212;-65
2021/07/19 07:08:26;;;;;;;11.17;6.90;;;26.30;53.30;;;;;;5097070;28;20196;-64
2021/07/19 07:10:58;;;;;;;9.03;7.33;;;26.40;53.30;;;;;;5103563;28;20288;-66
2021/07/19 07:13:26;;;;;;;8.27;6.63;;;26.30;53.10;;;;;;5101441;28;20201;-65
2021/07/19 07:16:09;;;;;;;11.87;7.03;;;26.30;53.30;;;;;;5098027;28;20693;-64
2021/07/19 07:18:37;;;;;;;12.33;6.60;;;26.40;53.30;;;;;;5101686;28;20731;-65
2021/07/19 07:21:06;;;;;;;8.97;6.80;;;26.40;53.50;;;;;;5101249;28;20562;-65
2021/07/19 07:23:34;;;;;;;11.17;7.00;;;26.40;53.00;;;;;;5085848;28;20531;-64
2021/07/19 07:26:06;;;;;;;7.80;7.00;;;26.40;52.60;;;;;;5105912;28;20665;-65
2021/07/19 07:28:35;;;;;;;8.27;6.27;;;26.40;52.70;;;;;;5105015;28;20204;-64
2021/07/19 07:31:10;;;;;;;8.37;6.77;;;26.50;52.70;;;;;;5103300;28;20258;-66
2021/07/19 07:33:41;;;;;;;7.30;6.60;;;26.50;52.40;;;;;;5105545;28;20212;-65
2021/07/19 07:36:26;;;;;;;8.30;7.10;;;26.50;52.40;;;;;;5113883;27;20193;-64
2021/07/19 07:38:56;;;;;;;7.43;6.70;;;26.50;52.10;;;;;;5088470;28;20736;-64
2021/07/19 07:41:31;;;;;;;9.70;6.17;;;26.50;52.20;;;;;;5105269;28;20193;-66
2021/07/19 07:44:02;;;;;;;13.10;6.27;;;26.50;52.00;;;;;;5104781;28;20203;-64
2021/07/19 07:46:31;;;;;;;8.17;6.43;;;26.60;52.10;;;;;;5096423;28;20207;-64
2021/07/19 07:49:00;;;;;;;14.87;7.00;;;26.60;52.30;;;;;;5098245;28;20794;-64
2021/07/19 07:51:29;;;;;;;8.87;6.73;;;26.60;52.10;;;;;;5096664;28;20246;-64
2021/07/19 07:54:18;;;;;;;7.23;6.57;;;26.70;52.10;;;;;;5101694;28;20211;-64
2021/07/19 07:57:06;;;;;;;8.40;7.60;;;26.60;52.00;;;;;;5102781;28;20595;-64
2021/07/19 07:59:34;;;;;;;9.13;6.70;;;26.60;52.20;;;;;;5101972;28;20669;-63
2021/07/19 08:02:25;;;;;;;8.33;7.43;;;26.60;52.50;;;;;;5094807;28;20193;-64
2021/07/19 08:04:58;;;;;;;7.60;6.83;;;26.60;52.60;;;;;;5102492;28;20209;-63
2021/07/19 08:07:26;;;;;;;7.73;6.93;;;26.60;52.40;;;;;;5104610;28;20194;-63
2021/07/19 08:09:56;;;;;;;8.17;7.40;;;26.60;52.60;;;;;;5103471;28;20205;-63
2021/07/19 08:12:48;;;;;;;8.03;7.20;;;26.50;51.90;;;;;;5093603;27;20278;-63
2021/07/19 08:15:26;;;;;;;8.40;7.60;;;26.40;51.60;;;;;;5082738;28;20208;-61
2021/07/19 08:17:58;;;;;;;9.87;8.13;;;26.40;51.50;;;;;;5098859;28;20640;-64
2021/07/19 08:20:29;;;;;;;8.33;7.43;;;26.40;51.50;;;;;;5100529;28;20228;-63
2021/07/19 08:23:00;;;;;;;8.47;7.47;;;26.40;51.50;;;;;;5100180;28;20213;-63
2021/07/19 08:25:30;;;;;;;8.40;7.60;;;26.30;51.30;;;;;;5102829;28;20239;-63
2021/07/19 08:28:09;;;;;;;9.80;8.23;;;26.30;51.70;;;;;;5105133;28;20206;-63
2021/07/19 08:30:42;;;;;;;8.67;7.77;;;26.30;51.70;;;;;;5097875;28;20688;-62
2021/07/19 08:33:14;;;;;;;8.67;7.80;;;26.20;51.60;;;;;;5094261;28;20197;-63
2021/07/19 08:35:45;;;;;;;7.70;6.93;;;26.20;51.80;;;;;;5103908;28;20196;-63
2021/07/19 08:38:18;;;;;;;10.07;7.67;;;26.20;51.80;;;;;;5106816;28;20215;-63
2021/07/19 08:40:49;;;;;;;8.23;7.43;;;26.10;51.70;;;;;;5101768;28;20192;-63
2021/07/19 08:43:38;;;;;;;8.57;7.67;;;26.10;51.70;;;;;;5100068;28;20205;-63
2021/07/19 08:46:11;;;;;;;10.73;7.90;;;26.10;51.80;;;;;;5098396;28;20189;-64
2021/07/19 08:48:42;;;;;;;7.97;7.17;;;26.10;51.80;;;;;;5104628;28;20265;-64
2021/07/19 08:51:12;;;;;;;9.03;7.17;;;26.10;51.90;;;;;;5095694;28;20224;-63
2021/07/19 08:53:45;;;;;;;8.33;7.50;;;26.00;51.90;;;;;;5101939;28;20274;-63
2021/07/19 08:56:16;;;;;;;9.07;7.83;;;26.00;51.60;;;;;;5093353;28;20197;-65
2021/07/19 08:58:53;;;;;;;8.33;7.43;;;26.10;52.00;;;;;;5096169;28;20216;-65
2021/07/19 09:01:32;;;;;;;8.80;7.40;;;26.10;51.90;;;;;;5104504;28;20196;-64
2021/07/19 09:04:06;;;;;;;9.20;8.00;;;26.10;51.90;;;;;;5099879;28;20257;-65
2021/07/19 09:06:39;;;;;;;10.47;8.07;;;26.10;52.60;;;;;;5104184;27;20200;-61
2021/07/19 09:09:07;;;;;;;9.30;8.00;;;26.10;51.90;;;;;;5068653;28;20593;-62
2021/07/19 09:11:51;;;;;;;8.37;7.57;;;26.10;51.60;;;;;;5106857;28;20200;-61
2021/07/19 09:14:20;;;;;;;8.50;7.27;;;26.10;51.70;;;;;;5108656;27;20204;-62
2021/07/19 09:16:50;;;;;;;8.63;7.73;;;26.10;51.60;;;;;;5082704;28;20588;-64
2021/07/19 09:19:29;;;;;;;9.30;8.23;;;26.00;51.80;;;;;;5085749;28;20224;-64
2021/07/19 09:22:02;;;;;;;8.30;7.47;;;26.10;51.80;;;;;;5107958;28;20207;-64
2021/07/19 09:24:36;;;;;;;9.67;8.13;;;26.10;51.60;;;;;;5098055;28;20184;-63
2021/07/19 09:27:07;;;;;;;10.57;7.70;;;26.10;51.50;;;;;;5099612;28;20211;-65
2021/07/19 09:29:38;;;;;;;8.73;7.70;;;26.10;51.30;;;;;;5098523;28;20209;-65
2021/07/19 09:32:10;;;;;;;9.30;8.40;;;26.10;51.10;;;;;;5104284;28;20231;-64
2021/07/19 09:34:41;;;;;;;9.30;8.40;;;26.10;51.10;;;;;;5097353;28;20665;-63
2021/07/19 09:37:15;;;;;;;10.07;8.77;;;26.10;51.10;;;;;;5105003;28;20587;-64
2021/07/19 09:39:53;;;;;;;10.10;9.10;;;26.20;51.00;;;;;;5099082;28;20208;-64
2021/07/19 09:42:24;;;;;;;10.37;8.73;;;26.10;50.80;;;;;;5097032;28;20288;-66
2021/07/19 09:44:56;;;;;;;9.90;8.90;;;26.20;51.00;;;;;;5100076;28;20650;-66
2021/07/19 09:47:40;;;;;;;9.60;8.70;;;26.20;51.00;;;;;;5098933;28;20597;-67
2021/07/19 09:50:14;;;;;;;11.03;8.70;;;26.20;50.70;;;;;;5099770;28;20269;-67
2021/07/19 09:53:01;;;;;;;9.57;8.77;;;26.30;50.60;;;;;;5105489;28;20204;-67
2021/07/19 09:55:34;;;;;;;10.30;9.33;;;26.30;50.40;;;;;;5102344;28;20660;-66
2021/07/19 09:58:05;;;;;;;10.17;9.17;;;26.30;50.40;;;;;;5101214;28;20223;-66
2021/07/19 10:00:47;;;;;;;10.57;9.47;;;26.30;50.40;;;;;;5100503;28;20196;-66
2021/07/19 10:03:30;;;;;;;10.33;9.33;;;26.30;50.40;;;;;;5099043;28;20204;-67
2021/07/19 10:06:08;;;;;;;10.13;9.13;;;26.40;50.10;;;;;;5098037;28;20685;-62
2021/07/19 10:08:40;;;;;;;10.17;9.27;;;26.40;50.00;;;;;;5101599;28;20287;-62
2021/07/19 10:11:17;;;;;;;11.60;10.40;;;26.40;50.20;;;;;;5101635;28;20212;-62
2021/07/19 10:13:52;;;;;;;11.03;9.87;;;26.30;50.70;;;;;;5100419;28;20200;-63
2021/07/19 10:16:27;;;;;;;13.57;9.77;;;26.30;50.70;;;;;;5105440;28;20289;-62
2021/07/19 10:19:01;;;;;;;11.07;9.97;;;26.30;50.70;;;;;;5103562;28;20586;-61
2021/07/19 10:21:34;;;;;;;11.30;10.27;;;26.20;50.80;;;;;;5098485;28;20196;-62
2021/07/19 10:24:10;;;;;;;11.63;10.43;;;26.20;51.10;;;;;;5098900;28;20223;-62
2021/07/19 10:26:49;;;;;;;11.30;10.20;;;26.20;51.30;;;;;;5100718;28;20869;-63
2021/07/19 10:29:18;;;;;;;11.20;10.10;;;26.20;51.50;;;;;;5096946;28;20196;-62
2021/07/19 10:31:51;;;;;;;11.67;10.47;;;26.20;51.60;;;;;;5102380;28;20205;-63
2021/07/19 10:34:21;;;;;;;11.93;10.73;;;26.10;51.60;;;;;;5098559;28;20082;-64
2021/07/19 10:37:00;;;;;;;11.07;10.03;;;26.20;51.90;;;;;;5088028;28;20209;-65
2021/07/19 10:39:39;;;;;;;11.50;10.23;;;26.20;52.00;;;;;;5094452;28;20209;-65
2021/07/19 10:42:10;;;;;;;11.60;10.40;;;26.20;51.60;;;;;;5093931;28;20855;-65
2021/07/19 10:44:43;;;;;;;11.17;10.07;;;26.20;51.40;;;;;;5098916;28;20196;-65
2021/07/19 10:47:22;;;;;;;10.60;9.53;;;26.20;51.40;;;;;;5101873;28;20209;-65
2021/07/19 10:50:14;;;;;;;10.87;9.77;;;26.20;51.40;;;;;;5100665;28;20675;-66
2021/07/19 10:52:44;;;;;;;10.90;9.80;;;26.30;51.60;;;;;;5087915;28;20204;-68
2021/07/19 10:55:26;;;;;;;11.17;10.07;;;26.30;51.50;;;;;;5102205;28;20788;-66
2021/07/19 10:58:17;;;;;;;11.50;10.40;;;26.30;51.50;;;;;;5103938;28;20707;-63
2021/07/19 11:00:47;;;;;;;11.67;10.47;;;26.40;51.40;;;;;;5107295;27;20590;-64
2021/07/19 11:03:20;;;;;;;12.17;10.97;;;26.40;51.20;;;;;;5083747;28;20193;-65
2021/07/19 11:05:53;;;;;;;10.83;9.73;;;26.40;51.20;;;;;;5093341;28;20197;-66
2021/07/19 11:08:27;;;;;;;10.83;9.83;;;26.40;51.00;;;;;;5097246;28;20207;-65
2021/07/19 11:10:59;;;;;;;11.27;9.73;;;26.40;51.20;;;;;;5101358;28;20554;-65
2021/07/19 11:13:35;;;;;;;11.13;9.77;;;26.40;51.20;;;;;;5092861;28;20199;-65
2021/07/19 11:16:21;;;;;;;11.17;10.10;;;26.50;51.10;;;;;;5103699;28;20192;-66
2021/07/19 11:19:04;;;;;;;10.77;9.77;;;26.50;50.80;;;;;;5101108;28;20594;-65
2021/07/19 11:21:34;;;;;;;10.87;9.77;;;26.50;50.70;;;;;;5100370;28;20208;-65
2021/07/19 11:24:21;;;;;;;10.67;9.57;;;26.50;50.80;;;;;;5107296;28;20200;-65
2021/07/19 11:26:57;;;;;;;32.37;13.97;;;26.50;51.00;;;;;;5101510;28;20254;-65
2021/07/19 11:29:41;;;;;;;96.70;24.70;;;26.50;50.90;;;;;;5097491;28;20200;-65
2021/07/19 11:32:27;;;;;;;67.73;16.50;;;26.60;51.30;;;;;;5094716;28;20208;-66
2021/07/19 11:35:22;;;;;;;29.20;12.37;;;26.60;50.90;;;;;;5098047;28;20208;-66
2021/07/19 11:37:56;;;;;;;19.17;10.37;;;26.50;50.50;;;;;;5100927;28;20687;-65
2021/07/19 11:40:41;;;;;;;14.07;9.60;;;26.50;50.50;;;;;;5089969;28;20287;-66
2021/07/19 11:43:18;;;;;;;12.83;9.60;;;26.50;50.50;;;;;;5084372;28;20206;-65
2021/07/19 11:45:49;;;;;;;10.67;9.57;;;26.50;50.60;;;;;;5106543;28;20246;-65
2021/07/19 11:48:23;;;;;;;10.90;9.70;;;26.40;50.40;;;;;;5100635;28;20254;-65
2021/07/19 11:50:58;;;;;;;13.57;9.80;;;26.50;50.70;;;;;;5096588;28;20550;-65
2021/07/19 11:53:28;;;;;;;10.10;9.10;;;26.40;50.50;;;;;;5108682;28;20649;-64
2021/07/19 11:56:07;;;;;;;10.50;9.40;;;26.40;50.50;;;;;;5103827;28;20201;-67
2021/07/19 11:59:07;;;;;;;9.73;8.73;;;26.40;50.50;;;;;;5104365;28;20208;-67
2021/07/19 12:01:41;;;;;;;9.87;8.87;;;26.40;50.30;;;;;;5119780;27;20197;-65
2021/07/19 12:04:16;;;;;;;9.10;8.30;;;26.40;50.30;;;;;;5108207;28;20582;-65
2021/07/19 12:06:52;;;;;;;10.37;9.27;;;26.40;50.30;;;;;;5105793;28;20196;-66
2021/07/19 12:09:20;;;;;;;9.97;8.97;;;26.40;50.30;;;;;;5100622;28;20565;-66
2021/07/19 12:11:57;;;;;;;10.03;9.00;;;26.40;50.30;;;;;;5100313;28;20211;-67
2021/07/19 12:14:31;;;;;;;9.37;8.40;;;26.40;50.50;;;;;;5099929;28;20208;-66
2021/07/19 12:17:08;;;;;;;9.70;8.50;;;26.50;50.90;;;;;;5103009;28;20383;-65
2021/07/19 12:19:49;;;;;;;9.20;8.30;;;26.50;50.20;;;;;;5103269;28;20213;-65
2021/07/19 12:22:23;;;;;;;9.60;8.70;;;26.50;50.50;;;;;;5102336;28;20184;-64
2021/07/19 12:24:58;;;;;;;9.93;8.97;;;26.50;50.20;;;;;;5106020;28;20211;-64
2021/07/19 12:27:28;;;;;;;9.90;8.90;;;26.50;50.20;;;;;;5119513;27;20195;-64
2021/07/19 12:29:59;;;;;;;9.90;8.77;;;26.50;50.10;;;;;;5103896;28;20188;-65
2021/07/19 12:32:31;;;;;;;9.80;8.80;;;26.50;50.40;;;;;;5099110;28;20238;-65
2021/07/19 12:35:07;;;;;;;10.47;9.47;;;26.60;50.60;;;;;;5099636;28;20289;-65
2021/07/19 12:37:39;;;;;;;9.23;8.10;;;26.50;50.50;;;;;;5081684;28;20204;-65
2021/07/19 12:40:18;;;;;;;9.90;8.90;;;26.50;50.50;;;;;;5098191;28;20855;-66
2021/07/19 12:42:51;;;;;;;10.50;9.40;;;26.50;50.50;;;;;;5101559;27;20220;-65
2021/07/19 12:45:23;;;;;;;10.17;9.00;;;26.50;50.00;;;;;;5097235;28;20304;-64
2021/07/19 12:47:54;;;;;;;10.20;9.13;;;26.60;49.90;;;;;;5106206;28;20207;-64
2021/07/19 12:50:24;;;;;;;9.83;8.83;;;26.60;50.10;;;;;;5103827;28;20188;-64
2021/07/19 12:52:55;;;;;;;9.70;8.53;;;26.60;50.40;;;;;;5106652;28;20296;-64
2021/07/19 12:55:28;;;;;;;10.23;9.23;;;26.60;50.50;;;;;;5101167;28;20265;-65
2021/07/19 12:57:56;;;;;;;9.30;8.30;;;26.60;50.30;;;;;;5101238;28;20200;-65
2021/07/19 13:00:30;;;;;;;9.57;8.63;;;26.60;50.50;;;;;;5090535;28;20216;-64
2021/07/19 13:03:09;;;;;;;9.10;8.20;;;26.60;50.50;;;;;;5101368;28;20197;-64
2021/07/19 13:05:52;;;;;;;9.90;8.90;;;26.60;50.60;;;;;;5105638;28;20203;-64
2021/07/19 13:08:36;;;;;;;10.80;9.70;;;26.60;50.60;;;;;;5092970;28;20216;-65
2021/07/19 13:11:07;;;;;;;12.53;9.43;;;26.50;50.60;;;;;;5103473;28;20704;-65
2021/07/19 13:13:43;;;;;;;9.80;8.80;;;26.50;50.60;;;;;;5095024;28;20200;-65
2021/07/19 13:16:11;;;;;;;10.13;9.13;;;26.60;50.60;;;;;;5117180;27;20238;-65
2021/07/19 13:18:57;;;;;;;9.67;8.67;;;26.60;50.70;;;;;;5092059;28;20628;-65
2021/07/19 13:21:26;;;;;;;9.83;8.83;;;26.60;50.80;;;;;;5099023;28;20195;-65
2021/07/19 13:24:01;;;;;;;11.00;9.03;;;26.50;50.80;;;;;;5094206;28;20717;-64